Fishersville, Virginia
Current Conditions -  °F | °C
As of 11:15 PM on Wednesday 17 Dec 2014 (Local Time) from KW13 Reporting Station
Clear Clear  
Wind Chill: 27°   Ceiling: Unl
Heat Index: 33°   Visibility: 10mi
Dew Point: 23°   Wind: 7mph
Humidity: 65%   Direction: 230°SW
Pressure: 30.04"   Gusts: NA
Location:  38.1°N, 78.97°W
Report Text: KW13 180415Z AUTO 23006KT 10SM CLR 01/M05 A3004 RMK AO1 T00081052
Loading
Personal Weather Stations






























Interactive Weather Map New forecast layout! Learn more

10-Day Weather Forecast

Advertisements
Track Severe Weather on mobile